createdAt,value
2022-09-09T00:02:30.459Z,16.00
2022-09-09T00:05:28.526Z,16.00
2022-09-09T00:08:21.284Z,16.00
2022-09-09T00:11:13.803Z,16.00
2022-09-09T00:14:05.256Z,16.00
2022-09-09T00:16:56.683Z,16.00
2022-09-09T00:19:54.549Z,15.90
2022-09-09T00:22:51.065Z,15.90
2022-09-09T00:25:43.262Z,15.90
2022-09-09T00:28:33.195Z,15.80
2022-09-09T00:31:26.082Z,15.80
2022-09-09T00:34:14.600Z,15.80
2022-09-09T00:37:01.053Z,15.80
2022-09-09T00:39:52.976Z,15.80
2022-09-09T00:42:43.906Z,15.80
2022-09-09T00:45:55.997Z,15.80
2022-09-09T00:49:20.153Z,15.80
2022-09-09T00:52:35.970Z,15.80
2022-09-09T00:55:34.790Z,15.80
2022-09-09T00:58:20.760Z,15.80
2022-09-09T01:01:09.924Z,15.70
2022-09-09T01:04:00.509Z,15.70
2022-09-09T01:06:53.420Z,15.60
2022-09-09T01:09:52.433Z,15.60
2022-09-09T01:12:43.130Z,15.60
2022-09-09T01:15:33.954Z,15.60
2022-09-09T01:18:24.041Z,15.60
2022-09-09T01:21:26.886Z,15.60
2022-09-09T01:24:21.744Z,15.60
2022-09-09T01:27:42.110Z,15.60
2022-09-09T01:30:29.548Z,15.60
2022-09-09T01:33:19.394Z,15.60
2022-09-09T01:36:14.636Z,15.60
2022-09-09T01:39:06.730Z,15.60
2022-09-09T01:41:56.077Z,15.70
2022-09-09T01:44:45.331Z,15.70
2022-09-09T01:47:31.941Z,15.70
2022-09-09T01:50:38.222Z,15.70
2022-09-09T01:53:25.388Z,15.70
2022-09-09T01:56:25.202Z,15.70
2022-09-09T01:59:33.892Z,15.70
2022-09-09T02:02:28.196Z,15.70
2022-09-09T02:05:35.473Z,15.80
2022-09-09T02:08:38.660Z,15.70
2022-09-09T02:11:29.753Z,15.80
2022-09-09T02:14:31.631Z,15.80
2022-09-09T02:17:25.945Z,15.80
2022-09-09T02:20:30.551Z,15.80
2022-09-09T02:23:21.901Z,15.90
2022-09-09T02:26:15.852Z,15.90
2022-09-09T02:29:07.153Z,15.90
2022-09-09T02:31:57.534Z,15.90
2022-09-09T02:34:52.678Z,15.90
2022-09-09T02:37:40.687Z,15.90
2022-09-09T02:40:27.057Z,15.90
2022-09-09T02:43:19.677Z,15.90
2022-09-09T02:46:37.992Z,15.90
2022-09-09T02:49:34.045Z,15.90
2022-09-09T02:52:26.909Z,15.90
2022-09-09T02:55:37.856Z,15.90
2022-09-09T02:58:24.350Z,15.90
2022-09-09T03:01:16.691Z,15.90
2022-09-09T03:04:06.401Z,15.90
2022-09-09T03:06:52.932Z,15.90
2022-09-09T03:09:41.157Z,15.90
2022-09-09T03:15:24.911Z,15.80
2022-09-09T03:18:10.920Z,15.80
2022-09-09T03:20:56.891Z,15.80
2022-09-09T03:23:43.628Z,15.80
2022-09-09T03:26:30.210Z,15.80
2022-09-09T03:29:18.309Z,15.80
2022-09-09T03:32:04.754Z,15.80
2022-09-09T03:34:51.226Z,15.70
2022-09-09T03:37:39.717Z,15.70
2022-09-09T03:40:26.004Z,15.70
2022-09-09T03:43:13.355Z,15.70
2022-09-09T03:45:59.785Z,15.70
2022-09-09T03:48:47.386Z,15.70
2022-09-09T03:51:37.742Z,15.70
2022-09-09T03:54:25.762Z,15.70
2022-09-09T03:57:12.039Z,15.70
2022-09-09T03:59:59.004Z,15.80
2022-09-09T04:02:45.318Z,15.70
2022-09-09T04:05:35.033Z,15.80
2022-09-09T04:08:21.993Z,15.70
2022-09-09T04:11:10.901Z,15.70
2022-09-09T04:13:58.543Z,15.70
2022-09-09T04:16:45.557Z,15.70
2022-09-09T04:19:32.429Z,15.80
2022-09-09T04:22:19.163Z,15.70
2022-09-09T04:25:07.589Z,15.70
2022-09-09T04:27:59.110Z,15.70
2022-09-09T04:30:47.246Z,15.70
2022-09-09T04:33:36.996Z,15.70
2022-09-09T04:36:25.853Z,15.70
2022-09-09T04:39:16.877Z,15.70
2022-09-09T04:42:04.220Z,15.80
2022-09-09T04:44:50.599Z,15.80
2022-09-09T04:47:37.466Z,15.80
2022-09-09T04:50:23.771Z,15.80
2022-09-09T04:53:18.244Z,15.70
2022-09-09T04:56:13.913Z,15.70
2022-09-09T04:59:18.271Z,15.70
2022-09-09T05:02:08.245Z,15.70
2022-09-09T05:04:55.004Z,15.70
2022-09-09T05:07:41.284Z,15.70
2022-09-09T05:10:27.255Z,15.60
2022-09-09T05:13:14.049Z,15.60
2022-09-09T05:15:59.950Z,15.60
2022-09-09T05:18:47.108Z,15.60
2022-09-09T05:21:33.940Z,15.60
2022-09-09T05:24:20.508Z,15.60
2022-09-09T05:27:13.065Z,15.60
2022-09-09T05:29:59.618Z,15.60
2022-09-09T05:32:45.700Z,15.60
2022-09-09T05:35:33.057Z,15.60
2022-09-09T05:38:19.512Z,15.60
2022-09-09T05:41:06.583Z,15.60
2022-09-09T05:43:52.437Z,15.50
2022-09-09T05:46:39.373Z,15.60
2022-09-09T05:49:27.578Z,15.60
2022-09-09T05:52:13.489Z,15.60
2022-09-09T05:55:00.197Z,15.60
2022-09-09T05:57:50.259Z,15.60
2022-09-09T06:00:36.485Z,15.60
2022-09-09T06:03:24.538Z,15.60
2022-09-09T06:06:13.476Z,15.60
2022-09-09T06:08:59.973Z,15.70
2022-09-09T06:11:58.783Z,15.70
2022-09-09T06:14:46.577Z,15.70
2022-09-09T06:17:34.637Z,15.70
2022-09-09T06:20:21.099Z,15.70
2022-09-09T06:23:07.582Z,15.70
2022-09-09T06:26:10.238Z,15.70
2022-09-09T06:28:58.269Z,15.70
2022-09-09T06:31:44.912Z,15.70
2022-09-09T06:34:37.584Z,15.80
2022-09-09T06:37:25.086Z,15.80
2022-09-09T06:40:12.053Z,15.80
2022-09-09T06:43:01.955Z,15.80
2022-09-09T06:45:57.223Z,15.80
2022-09-09T06:48:45.471Z,15.80
2022-09-09T06:51:37.186Z,15.80
2022-09-09T06:54:26.294Z,15.90
2022-09-09T06:57:36.061Z,15.90
2022-09-09T07:00:21.209Z,16.00
2022-09-09T07:03:07.193Z,16.00
2022-09-09T07:05:57.763Z,16.10
2022-09-09T07:08:56.427Z,16.10
2022-09-09T07:11:49.091Z,16.10
2022-09-09T07:14:38.519Z,16.10
2022-09-09T07:17:29.209Z,16.10
2022-09-09T07:20:16.619Z,16.10
2022-09-09T07:23:06.397Z,16.10
2022-09-09T07:25:53.785Z,16.20
2022-09-09T07:28:42.304Z,16.20
2022-09-09T07:31:34.259Z,16.30
2022-09-09T07:34:20.904Z,16.40
2022-09-09T07:37:07.473Z,16.40
2022-09-09T07:39:54.685Z,16.40
2022-09-09T07:42:41.132Z,16.40
2022-09-09T07:45:32.394Z,16.40
2022-09-09T07:48:18.231Z,16.40
2022-09-09T07:51:09.110Z,16.40
2022-09-09T07:54:02.856Z,16.50
2022-09-09T07:56:50.391Z,16.50
2022-09-09T07:59:36.644Z,16.50
2022-09-09T08:02:24.769Z,16.50
2022-09-09T08:05:11.417Z,16.50
2022-09-09T08:08:01.310Z,16.50
2022-09-09T08:10:47.619Z,16.50
2022-09-09T08:13:38.846Z,16.50
2022-09-09T08:16:28.258Z,16.50
2022-09-09T08:19:16.438Z,16.50
2022-09-09T08:22:04.220Z,16.60
2022-09-09T08:24:53.103Z,16.60
2022-09-09T08:27:39.671Z,16.70
2022-09-09T08:30:26.231Z,16.80
2022-09-09T08:33:12.319Z,16.90
2022-09-09T08:35:58.212Z,16.90
2022-09-09T08:38:47.786Z,17.00
2022-09-09T08:42:27.538Z,17.10
2022-09-09T08:45:44.305Z,17.20
2022-09-09T08:48:59.109Z,17.20
2022-09-09T08:51:44.935Z,17.30
2022-09-09T08:54:51.585Z,17.30
2022-09-09T08:57:41.283Z,17.40
2022-09-09T09:00:43.625Z,17.60
2022-09-09T09:03:54.157Z,17.60
2022-09-09T09:07:05.835Z,17.70
2022-09-09T09:10:03.355Z,17.70
2022-09-09T09:12:55.096Z,17.60
2022-09-09T09:15:44.955Z,17.60
2022-09-09T09:18:32.412Z,17.60
2022-09-09T09:21:45.896Z,17.50
2022-09-09T09:25:00.229Z,17.50
2022-09-09T09:28:01.551Z,17.40
2022-09-09T09:31:10.117Z,17.30
2022-09-09T09:33:59.164Z,17.30
2022-09-09T09:36:57.958Z,17.30
2022-09-09T09:40:03.043Z,17.30
2022-09-09T09:43:00.354Z,17.40
2022-09-09T09:46:06.963Z,17.40
2022-09-09T09:49:06.380Z,17.50
2022-09-09T09:51:53.567Z,17.60
2022-09-09T09:54:43.061Z,17.60
2022-09-09T09:57:34.500Z,17.80
2022-09-09T10:00:26.616Z,17.80
2022-09-09T10:03:25.816Z,17.90
2022-09-09T10:06:13.517Z,18.00
2022-09-09T10:09:00.634Z,18.00
2022-09-09T10:12:15.397Z,18.10
2022-09-09T10:15:33.179Z,18.30
2022-09-09T10:18:37.395Z,18.20
2022-09-09T10:21:42.253Z,18.20
2022-09-09T10:24:30.915Z,18.30
2022-09-09T10:27:48.078Z,18.30
2022-09-09T10:31:08.232Z,18.30
2022-09-09T10:34:07.358Z,18.40
2022-09-09T10:36:53.657Z,18.50
2022-09-09T10:39:43.751Z,18.60
2022-09-09T10:42:33.336Z,18.60
2022-09-09T10:45:44.203Z,18.60
2022-09-09T10:48:55.945Z,18.50
2022-09-09T10:52:11.933Z,18.50
2022-09-09T10:55:11.238Z,18.40
2022-09-09T10:58:01.028Z,18.40
2022-09-09T11:00:59.587Z,18.40
2022-09-09T11:03:53.520Z,18.50
2022-09-09T11:06:47.401Z,18.50
2022-09-09T11:09:54.275Z,18.60
2022-09-09T11:12:42.261Z,18.70
2022-09-09T11:15:55.936Z,18.80
2022-09-09T11:18:46.634Z,18.70
2022-09-09T11:21:38.677Z,18.70
2022-09-09T11:24:37.362Z,18.50
2022-09-09T11:27:44.358Z,18.50
2022-09-09T11:30:56.040Z,18.60
2022-09-09T11:33:59.554Z,18.70
2022-09-09T11:37:01.242Z,18.70
2022-09-09T11:39:53.536Z,18.70
2022-09-09T11:42:40.337Z,18.70
2022-09-09T11:45:29.755Z,18.60
2022-09-09T11:48:33.470Z,18.40
2022-09-09T11:51:22.414Z,18.30
2022-09-09T11:54:36.014Z,18.10
2022-09-09T11:57:48.917Z,18.10
2022-09-09T12:00:45.395Z,18.20
2022-09-09T12:03:37.062Z,18.20
2022-09-09T12:06:32.990Z,18.30
2022-09-09T12:09:53.716Z,18.30
2022-09-09T12:12:43.907Z,18.30
2022-09-09T12:15:30.754Z,18.50
2022-09-09T12:18:42.423Z,18.60
2022-09-09T12:21:55.736Z,18.70
2022-09-09T12:24:53.054Z,18.80
2022-09-09T12:28:10.841Z,18.70
2022-09-09T12:31:05.961Z,18.60
2022-09-09T12:33:53.813Z,18.60
2022-09-09T12:36:42.203Z,18.60
2022-09-09T12:39:37.503Z,18.80
2022-09-09T12:42:25.496Z,18.90
2022-09-09T12:45:21.495Z,19.10
2022-09-09T12:48:10.415Z,19.30
2022-09-09T12:50:57.259Z,19.60
2022-09-09T12:53:43.424Z,19.90
2022-09-09T12:56:32.314Z,20.10
2022-09-09T12:59:38.904Z,20.20
2022-09-09T13:02:31.465Z,20.40
2022-09-09T13:05:37.760Z,20.30
2022-09-09T13:08:23.834Z,20.20
2022-09-09T13:11:17.950Z,20.10
2022-09-09T13:14:04.079Z,20.00
2022-09-09T13:17:01.866Z,19.90
2022-09-09T13:19:48.440Z,19.90
2022-09-09T13:22:39.819Z,19.90
2022-09-09T13:25:28.625Z,20.10
2022-09-09T13:28:26.922Z,20.20
2022-09-09T13:31:30.920Z,20.30
2022-09-09T13:34:32.500Z,20.30
2022-09-09T13:37:38.252Z,20.40
2022-09-09T13:40:25.433Z,20.50
2022-09-09T13:43:22.241Z,20.40
2022-09-09T13:46:23.803Z,20.30
2022-09-09T13:49:12.510Z,20.30
2022-09-09T13:52:12.889Z,20.30
2022-09-09T13:55:00.389Z,20.30
2022-09-09T13:58:00.165Z,20.40
2022-09-09T14:00:47.746Z,20.50
2022-09-09T14:03:34.886Z,20.50
2022-09-09T14:06:22.842Z,20.50
2022-09-09T14:09:13.430Z,20.50
2022-09-09T14:12:00.687Z,20.60
2022-09-09T14:14:46.489Z,20.70
2022-09-09T14:17:32.755Z,20.70
2022-09-09T14:20:20.197Z,20.90
2022-09-09T14:23:07.530Z,21.10
2022-09-09T14:25:53.494Z,21.20
2022-09-09T14:28:56.731Z,21.30
2022-09-09T14:31:43.048Z,21.40
2022-09-09T14:34:29.142Z,21.50
2022-09-09T14:37:15.297Z,21.60
2022-09-09T14:40:01.261Z,21.50
2022-09-09T14:42:47.545Z,21.50
2022-09-09T14:45:33.597Z,21.50
2022-09-09T14:48:20.103Z,21.60
2022-09-09T14:51:11.248Z,21.70
2022-09-09T14:54:02.718Z,21.70
2022-09-09T14:56:48.736Z,21.50
2022-09-09T14:59:35.472Z,21.40
2022-09-09T15:02:21.300Z,21.20
2022-09-09T15:05:07.492Z,21.00
2022-09-09T15:07:53.496Z,20.80
2022-09-09T15:10:42.018Z,20.60
2022-09-09T15:13:28.117Z,20.50
2022-09-09T15:16:19.050Z,20.40
2022-09-09T15:19:05.319Z,20.30
2022-09-09T15:21:51.518Z,20.30
2022-09-09T15:24:37.753Z,20.30
2022-09-09T15:27:24.822Z,20.30
2022-09-09T15:30:11.760Z,20.20
2022-09-09T15:32:58.022Z,20.20
2022-09-09T15:35:43.990Z,20.10
2022-09-09T15:38:32.471Z,20.10
2022-09-09T15:41:20.776Z,20.10
2022-09-09T15:44:07.162Z,20.20
2022-09-09T15:46:54.702Z,20.30
2022-09-09T15:49:40.732Z,20.20
2022-09-09T15:52:26.739Z,20.20
2022-09-09T15:55:12.775Z,20.00
2022-09-09T15:57:58.744Z,20.00
2022-09-09T16:00:46.584Z,20.00
2022-09-09T16:03:41.630Z,19.80
2022-09-09T16:06:31.600Z,19.50
2022-09-09T16:09:17.908Z,19.20
2022-09-09T16:12:08.781Z,19.00
2022-09-09T16:14:55.829Z,18.70
2022-09-09T16:17:41.678Z,18.50
2022-09-09T16:20:27.685Z,18.30
2022-09-09T16:23:13.763Z,18.10
2022-09-09T16:26:03.689Z,17.60
2022-09-09T16:28:51.653Z,17.20
2022-09-09T16:31:38.749Z,16.90
2022-09-09T16:34:26.231Z,16.70
2022-09-09T16:37:12.233Z,16.70
2022-09-09T16:39:58.426Z,16.80
2022-09-09T16:42:47.190Z,16.90
2022-09-09T16:45:33.732Z,16.90
2022-09-09T16:48:20.561Z,17.00
2022-09-09T16:51:11.583Z,17.10
2022-09-09T16:54:00.429Z,17.10
2022-09-09T16:56:48.789Z,17.10
2022-09-09T16:59:35.017Z,17.10
2022-09-09T17:02:21.207Z,17.10
2022-09-09T17:05:07.803Z,17.00
2022-09-09T17:07:58.349Z,17.10
2022-09-09T17:10:44.402Z,17.20
2022-09-09T17:13:31.141Z,17.20
2022-09-09T17:16:19.776Z,17.20
2022-09-09T17:19:05.992Z,17.20
2022-09-09T17:22:15.628Z,17.20
2022-09-09T17:24:58.423Z,17.30
2022-09-09T17:27:45.090Z,17.40
2022-09-09T17:30:35.022Z,17.50
2022-09-09T17:33:21.740Z,17.40
2022-09-09T17:36:09.899Z,17.40
2022-09-09T17:38:57.002Z,17.40
2022-09-09T17:41:42.926Z,17.30
2022-09-09T17:44:29.743Z,17.30
2022-09-09T17:47:15.597Z,17.20
2022-09-09T17:50:02.139Z,17.20
2022-09-09T17:52:48.106Z,17.10
2022-09-09T17:55:34.209Z,17.10
2022-09-09T17:58:22.383Z,17.10
2022-09-09T18:01:12.630Z,17.00
2022-09-09T18:04:02.097Z,17.00
2022-09-09T18:06:51.703Z,17.00
2022-09-09T18:09:39.021Z,17.00
2022-09-09T18:12:25.310Z,17.00
2022-09-09T18:15:12.705Z,17.00
2022-09-09T18:18:02.469Z,17.00
2022-09-09T18:21:09.066Z,17.00
2022-09-09T18:23:54.973Z,16.90
2022-09-09T18:26:42.007Z,16.80
2022-09-09T18:29:28.339Z,16.80
2022-09-09T18:32:15.096Z,16.70
2022-09-09T18:35:01.583Z,16.70
2022-09-09T18:37:48.410Z,16.60
2022-09-09T18:40:34.313Z,16.60
2022-09-09T18:43:20.420Z,16.60
2022-09-09T18:46:06.769Z,16.50
2022-09-09T18:48:53.351Z,16.40
2022-09-09T18:51:41.243Z,16.40
2022-09-09T18:54:30.410Z,16.40
2022-09-09T18:57:16.610Z,16.40
2022-09-09T19:00:03.936Z,16.40
2022-09-09T19:02:53.193Z,16.30
2022-09-09T19:05:42.540Z,16.30
2022-09-09T19:08:28.869Z,16.20
2022-09-09T19:11:19.101Z,16.20
2022-09-09T19:14:10.588Z,16.20
2022-09-09T19:16:56.903Z,16.10
2022-09-09T19:19:43.669Z,16.10
2022-09-09T19:22:32.232Z,16.10
2022-09-09T19:25:21.111Z,16.10
2022-09-09T19:28:09.983Z,16.10
2022-09-09T19:30:56.403Z,16.00
2022-09-09T19:33:47.125Z,16.00
2022-09-09T19:36:33.324Z,16.00
2022-09-09T19:39:21.568Z,16.00
2022-09-09T19:42:07.624Z,15.90
2022-09-09T19:44:53.645Z,16.00
2022-09-09T19:47:39.727Z,16.00
2022-09-09T19:50:26.049Z,16.00
2022-09-09T19:53:12.281Z,16.00
2022-09-09T19:55:58.705Z,16.00
2022-09-09T19:58:47.544Z,16.00
2022-09-09T20:01:40.920Z,16.00
2022-09-09T20:04:27.560Z,16.00
2022-09-09T20:07:13.528Z,16.00
2022-09-09T20:09:59.369Z,16.00
2022-09-09T20:12:45.236Z,16.00
2022-09-09T20:15:31.198Z,16.00
2022-09-09T20:18:17.241Z,16.00
2022-09-09T20:21:14.277Z,15.90
2022-09-09T20:24:02.475Z,15.90
2022-09-09T20:26:49.092Z,15.80
2022-09-09T20:29:36.401Z,15.80
2022-09-09T20:32:22.380Z,15.80
2022-09-09T20:35:08.426Z,15.70
2022-09-09T20:37:54.682Z,15.70
2022-09-09T20:40:43.806Z,15.60
2022-09-09T20:43:32.734Z,15.60
2022-09-09T20:46:20.820Z,15.60
2022-09-09T20:49:08.185Z,15.60
2022-09-09T20:51:55.081Z,15.60
2022-09-09T20:54:41.820Z,15.60
2022-09-09T20:57:27.937Z,15.60
2022-09-09T21:00:14.936Z,15.60
2022-09-09T21:03:02.347Z,15.60
2022-09-09T21:05:48.694Z,15.60
2022-09-09T21:08:36.493Z,15.60
2022-09-09T21:11:22.369Z,15.60
2022-09-09T21:14:08.386Z,15.60
2022-09-09T21:16:54.535Z,15.60
2022-09-09T21:19:41.203Z,15.60
2022-09-09T21:22:27.075Z,15.60
2022-09-09T21:25:13.057Z,15.50
2022-09-09T21:27:59.153Z,15.50
2022-09-09T21:30:49.329Z,15.50
2022-09-09T21:33:35.397Z,15.50
2022-09-09T21:36:21.211Z,15.50
2022-09-09T21:39:07.013Z,15.40
2022-09-09T21:41:53.012Z,15.40
2022-09-09T21:44:40.431Z,15.40
2022-09-09T21:47:26.390Z,15.40
2022-09-09T21:50:12.525Z,15.40
2022-09-09T21:52:58.637Z,15.40
2022-09-09T21:55:47.706Z,15.40
2022-09-09T21:58:34.864Z,15.40
2022-09-09T22:01:21.184Z,15.40
2022-09-09T22:04:07.081Z,15.40
2022-09-09T22:06:52.957Z,15.30
2022-09-09T22:09:38.905Z,15.40
2022-09-09T22:12:25.264Z,15.30
2022-09-09T22:15:11.099Z,15.30
2022-09-09T22:17:58.687Z,15.30
2022-09-09T22:20:45.484Z,15.30
2022-09-09T22:23:31.783Z,15.30
2022-09-09T22:26:17.963Z,15.30
2022-09-09T22:29:04.949Z,15.30
2022-09-09T22:31:53.179Z,15.20
2022-09-09T22:34:39.169Z,15.20
2022-09-09T22:37:26.224Z,15.20
2022-09-09T22:40:14.072Z,15.20
2022-09-09T22:43:00.105Z,15.20
2022-09-09T22:45:46.582Z,15.20
2022-09-09T22:48:34.390Z,15.20
2022-09-09T22:51:20.270Z,15.20
2022-09-09T22:54:07.483Z,15.20
2022-09-09T22:56:53.847Z,15.10
2022-09-09T22:59:43.064Z,15.10
2022-09-09T23:02:29.106Z,15.10
2022-09-09T23:05:15.604Z,15.10
2022-09-09T23:08:01.749Z,15.10
2022-09-09T23:10:48.736Z,15.10
2022-09-09T23:13:37.090Z,15.10
2022-09-09T23:16:32.837Z,15.00
2022-09-09T23:19:19.921Z,15.00
2022-09-09T23:22:08.585Z,15.00
2022-09-09T23:24:55.313Z,15.00
2022-09-09T23:27:41.911Z,15.00
2022-09-09T23:30:28.332Z,15.00
2022-09-09T23:33:15.457Z,14.90
2022-09-09T23:36:03.216Z,14.90
2022-09-09T23:38:49.240Z,14.90
2022-09-09T23:41:36.750Z,14.90
2022-09-09T23:44:23.242Z,14.90
2022-09-09T23:47:09.597Z,14.80
2022-09-09T23:49:57.206Z,14.80
2022-09-09T23:52:44.073Z,14.80
2022-09-09T23:55:30.523Z,14.80
2022-09-09T23:58:16.366Z,14.80
